createdAt,value
2023-10-21T03:01:50.665Z,14.30
2023-10-21T03:04:18.754Z,14.30
2023-10-21T03:06:46.768Z,14.30
2023-10-21T03:09:17.538Z,14.40
2023-10-21T03:11:46.225Z,14.40
2023-10-21T03:14:14.890Z,14.40
2023-10-21T03:16:42.795Z,14.40
2023-10-21T03:19:12.093Z,14.40
2023-10-21T03:21:40.056Z,14.30
2023-10-21T03:24:08.551Z,14.30
2023-10-21T03:26:36.532Z,14.30
2023-10-21T03:29:05.738Z,14.30
2023-10-21T03:31:33.707Z,14.30
2023-10-21T03:34:01.644Z,14.30
2023-10-21T03:36:30.892Z,14.30
2023-10-21T03:38:58.989Z,14.30
2023-10-21T03:41:26.931Z,14.30
2023-10-21T03:43:54.868Z,14.30
2023-10-21T03:46:23.494Z,14.30
2023-10-21T03:48:51.561Z,14.30
2023-10-21T03:51:19.555Z,14.30
2023-10-21T03:53:48.880Z,14.30
2023-10-21T03:56:17.007Z,14.30
2023-10-21T03:58:45.078Z,14.30
2023-10-21T04:01:13.046Z,14.20
2023-10-21T04:03:41.133Z,14.30
2023-10-21T04:06:11.120Z,14.20
2023-10-21T04:08:39.293Z,14.30
2023-10-21T04:11:09.475Z,14.30
2023-10-21T04:13:37.422Z,14.30
2023-10-21T04:16:06.947Z,14.30
2023-10-21T04:18:34.978Z,14.30
2023-10-21T04:21:03.286Z,14.30
2023-10-21T04:23:31.234Z,14.20
2023-10-21T04:25:59.146Z,14.20
2023-10-21T04:28:29.172Z,14.00
2023-10-21T04:30:57.125Z,14.00
2023-10-21T04:33:25.435Z,14.00
2023-10-21T04:35:54.170Z,13.90
2023-10-21T04:38:22.084Z,13.90
2023-10-21T04:40:50.034Z,13.90
2023-10-21T04:43:18.284Z,13.90
2023-10-21T04:45:47.519Z,13.90
2023-10-21T04:48:15.689Z,13.90
2023-10-21T04:50:43.844Z,13.90
2023-10-21T04:53:11.850Z,13.90
2023-10-21T04:55:39.821Z,13.90
2023-10-21T04:58:09.108Z,13.90
2023-10-21T05:00:37.351Z,13.90
2023-10-21T05:03:06.953Z,13.90
2023-10-21T05:05:35.998Z,13.90
2023-10-21T05:08:04.253Z,14.00
2023-10-21T05:10:32.981Z,13.90
2023-10-21T05:13:00.887Z,13.90
2023-10-21T05:15:29.298Z,13.90
2023-10-21T05:17:57.369Z,13.90
2023-10-21T05:20:27.490Z,13.90
2023-10-21T05:22:55.407Z,13.90
2023-10-21T05:25:24.017Z,13.90
2023-10-21T05:27:51.973Z,13.90
2023-10-21T05:30:19.906Z,13.90
2023-10-21T05:32:48.000Z,14.00
2023-10-21T05:35:16.051Z,13.90
2023-10-21T05:37:45.315Z,13.80
2023-10-21T05:40:13.982Z,13.80
2023-10-21T05:42:42.096Z,13.80
2023-10-21T05:45:10.479Z,13.80
2023-10-21T05:47:38.582Z,13.90
2023-10-21T05:50:08.122Z,13.90
2023-10-21T05:52:36.067Z,13.90
2023-10-21T05:55:06.759Z,13.90
2023-10-21T05:57:34.676Z,13.90
2023-10-21T06:00:02.891Z,13.80
2023-10-21T06:02:32.690Z,13.80
2023-10-21T06:05:00.645Z,13.80
2023-10-21T06:07:32.036Z,13.90
2023-10-21T06:10:00.021Z,13.90
2023-10-21T06:12:29.553Z,13.90
2023-10-21T06:14:57.514Z,14.00
2023-10-21T06:17:25.563Z,14.00
2023-10-21T06:19:54.329Z,14.00
2023-10-21T06:22:23.332Z,14.10
2023-10-21T06:24:51.227Z,14.20
2023-10-21T06:27:19.200Z,14.20
2023-10-21T06:29:48.488Z,14.20
2023-10-21T06:32:16.391Z,14.20
2023-10-21T06:34:44.282Z,14.20
2023-10-21T06:37:12.509Z,14.20
2023-10-21T06:39:40.458Z,14.20
2023-10-21T06:42:08.555Z,14.20
2023-10-21T06:44:38.004Z,14.20
2023-10-21T06:47:08.130Z,14.10
2023-10-21T06:49:36.178Z,14.00
2023-10-21T06:52:04.274Z,14.00
2023-10-21T06:54:32.558Z,13.90
2023-10-21T06:57:00.533Z,13.80
2023-10-21T06:59:28.440Z,13.80
2023-10-21T07:01:56.379Z,13.80
2023-10-21T07:04:25.784Z,13.90
2023-10-21T07:06:53.702Z,14.00
2023-10-21T07:09:21.759Z,14.00
2023-10-21T07:11:49.720Z,14.10
2023-10-21T07:14:17.635Z,14.20
2023-10-21T07:16:45.626Z,14.20
2023-10-21T07:19:13.576Z,14.20
2023-10-21T07:21:43.023Z,14.10
2023-10-21T07:24:13.367Z,13.90
2023-10-21T07:26:42.859Z,13.90
2023-10-21T07:29:10.983Z,13.90
2023-10-21T07:31:40.584Z,13.80
2023-10-21T07:34:08.560Z,13.80
2023-10-21T07:36:36.546Z,13.80
2023-10-21T07:39:06.713Z,13.90
2023-10-21T07:41:34.965Z,13.90
2023-10-21T07:44:03.016Z,13.90
2023-10-21T07:46:30.963Z,14.00
2023-10-21T07:48:58.850Z,14.00
2023-10-21T07:51:26.918Z,14.10
2023-10-21T07:53:55.029Z,14.10
2023-10-21T07:56:24.525Z,14.10
2023-10-21T07:58:52.395Z,14.20
2023-10-21T08:01:20.908Z,14.20
2023-10-21T08:03:48.880Z,14.20
2023-10-21T08:06:16.906Z,14.30
2023-10-21T08:08:44.982Z,14.30
2023-10-21T08:11:12.894Z,14.30
2023-10-21T08:13:42.156Z,14.30
2023-10-21T08:16:10.102Z,14.30
2023-10-21T08:18:38.064Z,14.40
2023-10-21T08:21:06.847Z,14.40
2023-10-21T08:23:34.882Z,14.40
2023-10-21T08:26:02.749Z,14.40
2023-10-21T08:28:31.209Z,14.40
2023-10-21T08:31:00.454Z,14.30
2023-10-21T08:33:28.459Z,14.30
2023-10-21T08:35:56.382Z,14.40
2023-10-21T08:38:24.451Z,14.50
2023-10-21T08:40:52.925Z,14.50
2023-10-21T08:43:22.754Z,14.60
2023-10-21T08:45:50.984Z,14.70
2023-10-21T08:48:20.242Z,14.80
2023-10-21T08:50:50.508Z,14.80
2023-10-21T08:53:18.756Z,14.80
2023-10-21T08:55:47.111Z,14.80
2023-10-21T08:58:16.658Z,14.80
2023-10-21T09:00:45.374Z,14.80
2023-10-21T09:03:14.475Z,14.80
2023-10-21T09:06:04.849Z,14.80
2023-10-21T09:08:33.401Z,14.70
2023-10-21T09:11:04.033Z,14.60
2023-10-21T09:13:32.237Z,14.60
2023-10-21T09:16:01.817Z,14.50
2023-10-21T09:18:29.920Z,14.60
2023-10-21T09:20:57.879Z,14.70
2023-10-21T09:23:28.080Z,14.80
2023-10-21T09:25:56.252Z,14.80
2023-10-21T09:28:25.965Z,14.90
2023-10-21T09:30:58.207Z,14.90
2023-10-21T09:33:27.887Z,15.00
2023-10-21T09:36:19.047Z,15.10
2023-10-21T09:38:53.023Z,15.20
2023-10-21T09:41:22.872Z,15.20
2023-10-21T09:43:52.391Z,15.10
2023-10-21T09:46:21.583Z,15.20
2023-10-21T09:48:53.530Z,15.40
2023-10-21T09:51:24.093Z,15.50
2023-10-21T09:53:58.541Z,15.50
2023-10-21T09:56:28.405Z,15.50
2023-10-21T09:58:57.686Z,15.40
2023-10-21T10:01:26.283Z,15.40
2023-10-21T10:03:56.078Z,15.50
2023-10-21T10:06:30.600Z,15.50
2023-10-21T10:09:07.542Z,15.60
2023-10-21T10:11:39.734Z,15.60
2023-10-21T10:14:07.786Z,15.70
2023-10-21T10:16:43.335Z,15.70
2023-10-21T10:19:14.064Z,15.70
2023-10-21T10:21:43.957Z,15.60
2023-10-21T10:24:13.638Z,15.60
2023-10-21T10:26:41.654Z,15.50
2023-10-21T10:29:20.285Z,15.40
2023-10-21T10:31:52.718Z,15.40
2023-10-21T10:34:20.987Z,15.40
2023-10-21T10:36:48.856Z,15.40
2023-10-21T10:39:41.755Z,15.50
2023-10-21T10:42:11.722Z,15.60
2023-10-21T10:44:39.760Z,15.60
2023-10-21T10:47:08.192Z,15.70
2023-10-21T10:49:57.515Z,15.90
2023-10-21T10:52:29.409Z,16.20
2023-10-21T10:54:58.701Z,16.30
2023-10-21T10:57:27.513Z,16.30
2023-10-21T10:59:55.391Z,16.30
2023-10-21T11:02:25.648Z,16.20
2023-10-21T11:04:59.902Z,16.10
2023-10-21T11:07:31.297Z,16.00
2023-10-21T11:10:08.166Z,15.90
2023-10-21T11:12:36.282Z,15.90
2023-10-21T11:15:07.349Z,15.90
2023-10-21T11:17:35.581Z,15.80
2023-10-21T11:20:04.207Z,15.80
2023-10-21T11:22:32.135Z,15.70
2023-10-21T11:24:59.998Z,15.70
2023-10-21T11:27:29.627Z,15.60
2023-10-21T11:29:58.518Z,15.50
2023-10-21T11:32:28.442Z,15.50
2023-10-21T11:34:56.795Z,15.50
2023-10-21T11:37:25.962Z,15.50
2023-10-21T11:39:54.456Z,15.50
2023-10-21T11:42:22.381Z,15.60
2023-10-21T11:44:57.807Z,15.80
2023-10-21T11:47:27.957Z,16.00
2023-10-21T11:49:56.610Z,16.20
2023-10-21T11:52:28.441Z,16.40
2023-10-21T11:55:14.940Z,16.50
2023-10-21T11:58:03.406Z,16.70
2023-10-21T12:01:03.512Z,16.80
2023-10-21T12:03:57.588Z,16.80
2023-10-21T12:06:42.888Z,16.70
2023-10-21T12:09:36.826Z,16.70
2023-10-21T12:12:36.713Z,16.80
2023-10-21T12:15:24.718Z,17.00
2023-10-21T12:18:25.936Z,17.20
2023-10-21T12:21:07.876Z,17.20
2023-10-21T12:24:00.856Z,17.30
2023-10-21T12:26:46.146Z,17.30
2023-10-21T12:29:27.954Z,17.20
2023-10-21T12:32:13.153Z,17.20
2023-10-21T12:35:12.357Z,17.10
2023-10-21T12:38:03.009Z,17.10
2023-10-21T12:40:32.945Z,17.20
2023-10-21T12:43:24.908Z,17.40
2023-10-21T12:45:55.444Z,17.50
2023-10-21T12:48:23.465Z,17.60
2023-10-21T12:50:52.776Z,17.60
2023-10-21T12:53:21.300Z,17.60
2023-10-21T12:55:49.587Z,17.60
2023-10-21T12:58:17.465Z,17.60
2023-10-21T13:00:45.859Z,17.60
2023-10-21T13:03:14.440Z,17.60
2023-10-21T13:05:44.792Z,17.60
2023-10-21T13:08:14.067Z,17.60
2023-10-21T13:10:41.964Z,17.50
2023-10-21T13:13:12.297Z,17.50
2023-10-21T13:15:40.381Z,17.50
2023-10-21T13:18:08.548Z,17.50
2023-10-21T13:20:36.675Z,17.60
2023-10-21T13:23:05.578Z,17.60
2023-10-21T13:25:37.279Z,17.70
2023-10-21T13:28:06.855Z,17.60
2023-10-21T13:30:35.019Z,17.50
2023-10-21T13:33:05.166Z,17.50
2023-10-21T13:35:35.519Z,17.60
2023-10-21T13:38:03.835Z,17.60
2023-10-21T13:40:32.132Z,17.60
2023-10-21T13:43:01.517Z,17.50
2023-10-21T13:45:30.226Z,17.50
2023-10-21T13:47:59.435Z,17.60
2023-10-21T13:50:28.736Z,17.60
2023-10-21T13:53:05.906Z,17.70
2023-10-21T13:55:33.888Z,17.80
2023-10-21T13:58:03.112Z,17.90
2023-10-21T14:00:36.086Z,18.00
2023-10-21T14:03:15.672Z,18.00
2023-10-21T14:05:45.181Z,18.10
2023-10-21T14:08:15.906Z,18.30
2023-10-21T14:10:45.360Z,18.50
2023-10-21T14:13:16.794Z,18.60
2023-10-21T14:15:46.560Z,18.60
2023-10-21T14:18:14.569Z,18.80
2023-10-21T14:20:42.695Z,19.20
2023-10-21T14:23:11.340Z,18.90
2023-10-21T14:25:40.725Z,18.80
2023-10-21T14:28:13.251Z,18.60
2023-10-21T14:30:44.124Z,18.70
2023-10-21T14:33:13.399Z,18.70
2023-10-21T14:35:42.241Z,18.40
2023-10-21T14:38:10.689Z,18.20
2023-10-21T14:40:39.567Z,18.00
2023-10-21T14:43:09.347Z,18.20
2023-10-21T14:45:38.225Z,18.40
2023-10-21T14:48:10.894Z,18.60
2023-10-21T14:50:39.681Z,18.90
2023-10-21T14:53:09.412Z,19.10
2023-10-21T14:55:50.766Z,18.80
2023-10-21T14:58:23.424Z,18.50
2023-10-21T15:00:52.009Z,18.50
2023-10-21T15:03:22.217Z,18.30
2023-10-21T15:05:51.160Z,18.00
2023-10-21T15:08:22.141Z,18.00
2023-10-21T15:10:52.254Z,17.90
2023-10-21T15:13:20.946Z,17.80
2023-10-21T15:15:50.867Z,17.80
2023-10-21T15:18:19.897Z,17.70
2023-10-21T15:20:49.241Z,17.50
2023-10-21T15:23:18.545Z,17.30
2023-10-21T15:25:47.059Z,17.20
2023-10-21T15:28:14.979Z,17.20
2023-10-21T15:30:42.958Z,17.10
2023-10-21T15:33:11.011Z,17.10
2023-10-21T15:35:39.034Z,17.00
2023-10-21T15:38:08.697Z,17.00
2023-10-21T15:40:36.753Z,17.00
2023-10-21T15:43:04.981Z,16.90
2023-10-21T15:45:32.940Z,16.90
2023-10-21T15:48:00.933Z,16.90
2023-10-21T15:50:28.958Z,16.90
2023-10-21T15:52:56.871Z,16.80
2023-10-21T15:55:27.160Z,16.80
2023-10-21T15:57:55.102Z,16.80
2023-10-21T16:00:23.273Z,16.70
2023-10-21T16:02:51.485Z,16.60
2023-10-21T16:05:19.602Z,16.60
2023-10-21T16:07:57.893Z,16.50
2023-10-21T16:10:27.667Z,16.50
2023-10-21T16:12:55.603Z,16.40
2023-10-21T16:15:23.705Z,16.40
2023-10-21T16:17:51.821Z,16.30
2023-10-21T16:20:19.887Z,16.30
2023-10-21T16:22:48.943Z,16.20
2023-10-21T16:25:17.331Z,16.20
2023-10-21T16:27:46.637Z,16.10
2023-10-21T16:30:15.039Z,16.10
2023-10-21T16:32:43.202Z,16.10
2023-10-21T16:35:11.864Z,16.00
2023-10-21T16:37:39.865Z,16.00
2023-10-21T16:40:09.563Z,16.00
2023-10-21T16:42:37.744Z,15.90
2023-10-21T16:45:08.500Z,15.90
2023-10-21T16:47:36.638Z,15.90
2023-10-21T16:50:04.980Z,15.80
2023-10-21T16:52:32.976Z,15.70
2023-10-21T16:55:01.489Z,15.70
2023-10-21T16:57:29.867Z,15.70
2023-10-21T16:59:57.800Z,15.70
2023-10-21T17:02:27.141Z,15.60
2023-10-21T17:04:55.172Z,15.60
2023-10-21T17:07:23.094Z,15.60
2023-10-21T17:09:53.192Z,15.60
2023-10-21T17:12:21.352Z,15.60
2023-10-21T17:14:49.988Z,15.60
2023-10-21T17:17:17.918Z,15.60
2023-10-21T17:19:47.301Z,15.60
2023-10-21T17:22:15.223Z,15.60
2023-10-21T17:24:43.236Z,15.60
2023-10-21T17:27:11.271Z,15.50
2023-10-21T17:29:39.382Z,15.50
2023-10-21T17:32:08.743Z,15.40
2023-10-21T17:34:37.028Z,15.40
2023-10-21T17:37:06.420Z,15.40
2023-10-21T17:39:34.389Z,15.30
2023-10-21T17:42:02.343Z,15.30
2023-10-21T17:44:32.690Z,15.30
2023-10-21T17:47:01.080Z,15.20
2023-10-21T17:49:29.273Z,15.20
2023-10-21T17:51:58.540Z,15.10
2023-10-21T17:54:28.230Z,15.10
2023-10-21T17:56:56.252Z,15.10
2023-10-21T17:59:24.198Z,15.10
2023-10-21T18:01:52.179Z,15.10
2023-10-21T18:04:20.276Z,15.00
2023-10-21T18:06:48.994Z,15.00
2023-10-21T18:09:17.233Z,15.00
2023-10-21T18:11:46.514Z,15.00
2023-10-21T18:14:14.490Z,15.00
2023-10-21T18:16:42.792Z,14.90
2023-10-21T18:19:10.774Z,14.90
2023-10-21T18:21:38.706Z,14.90
2023-10-21T18:24:07.820Z,14.80
2023-10-21T18:26:35.760Z,14.80
2023-10-21T18:29:05.668Z,14.80
2023-10-21T18:31:33.936Z,14.80
2023-10-21T18:34:01.947Z,14.70
2023-10-21T18:36:29.938Z,14.70
2023-10-21T18:38:57.911Z,14.60
2023-10-21T18:41:26.636Z,14.60
2023-10-21T18:43:54.594Z,14.60
2023-10-21T18:46:23.928Z,14.60
2023-10-21T18:48:51.905Z,14.60
2023-10-21T18:51:26.687Z,14.60
2023-10-21T18:53:55.294Z,14.70
2023-10-21T18:56:23.208Z,14.70
2023-10-21T18:58:51.641Z,14.70
2023-10-21T19:01:19.847Z,14.70
2023-10-21T19:03:49.666Z,14.70
2023-10-21T19:06:18.202Z,14.70
2023-10-21T19:08:46.272Z,14.70
2023-10-21T19:11:14.606Z,14.80
2023-10-21T19:13:42.572Z,14.80
2023-10-21T19:16:10.508Z,14.80
2023-10-21T19:18:38.528Z,14.90
2023-10-21T19:21:08.603Z,14.80
2023-10-21T19:23:37.606Z,14.90
2023-10-21T19:26:05.653Z,14.90
2023-10-21T19:28:33.719Z,14.90
2023-10-21T19:31:05.701Z,14.90
2023-10-21T19:33:33.804Z,14.90
2023-10-21T19:36:01.774Z,14.90
2023-10-21T19:38:31.022Z,14.90
2023-10-21T19:40:58.912Z,14.90
2023-10-21T19:43:26.886Z,15.00
2023-10-21T19:45:54.850Z,14.90
2023-10-21T19:48:22.806Z,14.90
2023-10-21T19:50:50.743Z,15.00
2023-10-21T19:53:19.461Z,15.00
2023-10-21T19:55:56.716Z,15.00
2023-10-21T19:58:27.138Z,15.00
2023-10-21T20:00:56.926Z,15.00
2023-10-21T20:03:25.261Z,15.10
2023-10-21T20:05:57.075Z,15.10
2023-10-21T20:08:25.452Z,15.10
2023-10-21T20:11:04.712Z,15.10
2023-10-21T20:13:33.942Z,15.10
2023-10-21T20:16:06.333Z,15.00
2023-10-21T20:18:34.297Z,15.00
2023-10-21T20:21:03.727Z,15.00
2023-10-21T20:23:31.908Z,14.90
2023-10-21T20:26:07.707Z,14.90
2023-10-21T20:28:36.462Z,14.80
2023-10-21T20:31:05.498Z,14.80
2023-10-21T20:33:34.058Z,14.80
2023-10-21T20:36:05.514Z,14.80
2023-10-21T20:38:33.857Z,14.80
2023-10-21T20:41:10.163Z,14.80
2023-10-21T20:43:38.806Z,14.80
2023-10-21T20:46:07.546Z,14.80
2023-10-21T20:48:35.787Z,14.80
2023-10-21T20:51:04.201Z,14.80
2023-10-21T20:53:33.393Z,14.80
2023-10-21T20:56:01.754Z,14.80
2023-10-21T20:58:32.521Z,14.80
2023-10-21T21:01:00.451Z,14.80
2023-10-21T21:03:28.441Z,14.80
2023-10-21T21:05:56.382Z,14.80
2023-10-21T21:08:24.296Z,14.80
2023-10-21T21:10:52.249Z,14.70
2023-10-21T21:13:20.216Z,14.70
2023-10-21T21:15:49.550Z,14.60
2023-10-21T21:18:17.548Z,14.60
2023-10-21T21:20:45.856Z,14.60
2023-10-21T21:23:15.222Z,14.50
2023-10-21T21:25:44.204Z,14.50
2023-10-21T21:28:16.354Z,14.50
2023-10-21T21:30:52.883Z,14.50
2023-10-21T21:33:20.883Z,14.50
2023-10-21T21:35:57.686Z,14.50
2023-10-21T21:38:26.089Z,14.50
2023-10-21T21:40:54.166Z,14.40
2023-10-21T21:43:22.458Z,14.30
2023-10-21T21:45:52.722Z,14.30
2023-10-21T21:48:20.746Z,14.30
2023-10-21T21:50:48.665Z,14.20
2023-10-21T21:53:16.587Z,14.20
2023-10-21T21:55:47.537Z,14.10
2023-10-21T21:58:15.452Z,14.10
